Thunder radar more information blitzortung!


Radar de pluja more information rain snow radar


Visita la nostra xarxa de llocs de meteo:

Template documentation
and downloads

And another site



No particular awareness of the weather is required.    There are no Weather-warnings

Pagina Historial Weather Underground text

Diari Resum Novembre 21, 2017 Unitats:  Mètric    Imperial   Tant
« Previous Dia
SegĂźent Dia »
Diari Setmana Mensual Anual Personalitzada
  Maxima: Minima: Media:
Temperatura: -17.8 °C -15.1 °C -10.8 °C
Punt de rosada: -17.8 °C -18.8 °C -16.3 °C
Humitat: Humidity % 42 % 51 %
Wind Speed: 0 km/h 0 km/h 3.5 km/h
RĂ fegues de vent: 0 km/h - -
Vent:- - SSE
Pression baro: 0 hPa 34496.6 hPa -
Precipitacions: 0 mm    
Historical Graphs
 
 
Dades de taula per Novembre 21, 2017
Temps Temperatura Punt de rosada Pression baro Vent Wind Speed RĂ fegues de vent Humitat Rainfall Rate (Hourly)
-17.8 °C -17.8 °C 0 hPa Calm     Humidity % 0 mm
00:00 -14.4 °C -18.4 °C 34567.7 hPa North 2.6 km/h 5.1 km/h 60 % 0 mm
00:03 -13.9 °C -18.2 °C 34635.4 hPa NNE 3.1 km/h   58 % 0 mm
00:20 -14.6 °C -18.6 °C 34601.5 hPa NNE 2.6 km/h 7.7 km/h 60 % 0 mm
00:30 -14.6 °C -18.6 °C 34601.5 hPa North 2.6 km/h 7.7 km/h 60 % 0 mm
00:40 -14.6 °C -18.4 °C 34567.7 hPa Calm   5.1 km/h 61 % 0 mm
00:50 -14.8 °C -18.7 °C 34567.7 hPa Calm   2.6 km/h 61 % 0 mm
01:00 -14.9 °C -18.8 °C 34601.5 hPa North 2.6 km/h 2.6 km/h 61 % 0 mm
01:10 -15 °C -18.8 °C 34567.7 hPa NNE 2.6 km/h 5.1 km/h 61 % 0 mm
01:20 -15.1 °C -18.8 °C 34567.7 hPa Calm   2.6 km/h 62 % 0 mm
01:50 -15.1 °C -18.8 °C 34601.5 hPa Calm   5.1 km/h 62 % 0 mm
02:10 -14.9 °C -18.6 °C 34567.7 hPa NW 2.6 km/h 5.1 km/h 62 % 0 mm
02:20 -14.6 °C -18.3 °C 34567.7 hPa Calm   5.1 km/h 62 % 0 mm
02:30 -14.4 °C -18.2 °C 34567.7 hPa North 2.6 km/h 5.1 km/h 62 % 0 mm
02:50 -13.7 °C -17.6 °C 34601.5 hPa NNW 2.6 km/h 2.6 km/h 61 % 0 mm
03:00 -13.3 °C -17.3 °C 34601.5 hPa Calm   2.6 km/h 60 % 0 mm
03:10 -13.1 °C -17.3 °C 34601.5 hPa North 2.6 km/h 2.6 km/h 59 % 0 mm
03:20 -12.8 °C -17 °C 34601.5 hPa North 2.6 km/h 2.6 km/h 59 % 0 mm
03:30 -12.7 °C -17.1 °C 34601.5 hPa Calm   7.7 km/h 58 % 0 mm
03:40 -12.4 °C -16.9 °C 34601.5 hPa NNE 2.6 km/h 5.1 km/h 57 % 0 mm
03:50 -12.2 °C -16.7 °C 34601.5 hPa NNE 2.6 km/h 5.1 km/h 57 % 0 mm
04:00 -12 °C -16.7 °C 34601.5 hPa NE 5.1 km/h 7.7 km/h 56 % 0 mm
04:30 -11.5 °C -16.5 °C 34601.5 hPa NE 5.1 km/h 7.7 km/h 54 % 0 mm
10:38 -11.1 °C -16.2 °C 34635.4 hPa NE 6.3 km/h 6.3 km/h 54 % 0 mm
10:39 -11.1 °C -16.2 °C 34635.4 hPa NE 6 km/h 6 km/h 54 % 0 mm
10:44 -11.1 °C -16.1 °C 34635.4 hPa NE 6 km/h 6 km/h 54 % 0 mm
10:54 -10.9 °C -16.1 °C 34635.4 hPa South 6 km/h 6 km/h 53 % 0 mm
11:04 -10.4 °C -15.7 °C 34635.4 hPa WSW 6 km/h 6 km/h 53 % 0 mm
11:09 -10.3 °C -15.6 °C 34635.4 hPa NW 4.2 km/h 4.2 km/h 53 % 0 mm
11:14 -10.4 °C -15.7 °C 34635.4 hPa NNE 3.1 km/h 3.1 km/h 53 % 0 mm
11:24 -10.2 °C -15.6 °C 34635.4 hPa SSW 3.1 km/h   52 % 0 mm
11:29 -10.1 °C -15.4 °C 34635.4 hPa WSW 6 km/h 6 km/h 52 % 0 mm
11:34 -10 °C -15.4 °C 34669.3 hPa East 3.1 km/h 3.1 km/h 52 % 0 mm
11:44 -9.9 °C -15.3 °C 34669.3 hPa ENE 9 km/h 9 km/h 52 % 0 mm
11:49 -9.9 °C -15.3 °C 34669.3 hPa NE 6 km/h 6 km/h 52 % 0 mm
11:54 -9.7 °C -15.1 °C 34669.3 hPa ENE 3.1 km/h 3.1 km/h 52 % 0 mm
11:59 -9.6 °C -15.1 °C 34669.3 hPa NNE 6 km/h 6 km/h 52 % 0 mm
12:04 -9.7 °C -15.1 °C 34669.3 hPa NE 6 km/h 6.8 km/h 52 % 0 mm
12:09 -9.7 °C -15.2 °C 34669.3 hPa NNE 9 km/h 9 km/h 51 % 0 mm
12:14 -9.6 °C -15.1 °C 34669.3 hPa NNW 3.1 km/h 3.1 km/h 51 % 0 mm
12:19 -9.3 °C -14.9 °C 34635.4 hPa ENE 6 km/h   51 % 0 mm
12:24 -9.3 °C -14.9 °C 34635.4 hPa NE 6 km/h 6 km/h 51 % 0 mm
12:29 -9.1 °C -14.7 °C 34635.4 hPa NE 6 km/h 6 km/h 51 % 0 mm
12:39 -8.8 °C -14.5 °C 34635.4 hPa West 3.1 km/h 3.1 km/h 51 % 0 mm
12:44 -8.6 °C -14.2 °C 34635.4 hPa ESE 6 km/h 6 km/h 51 % 0 mm
12:49 -8.6 °C -14.4 °C 34635.4 hPa East 6 km/h 6 km/h 50 % 0 mm
12:54 -8.6 °C -14.4 °C 34635.4 hPa ESE 4.2 km/h 4.2 km/h 50 % 0 mm
12:59 -8.6 °C -14.4 °C 34635.4 hPa ENE 9 km/h 9 km/h 50 % 0 mm
13:04 -8.4 °C -14.3 °C 34635.4 hPa East 6.8 km/h 6.8 km/h 50 % 0 mm
13:09 -8.4 °C -14.2 °C 34635.4 hPa ESE 3.1 km/h   50 % 0 mm
13:14 -8.4 °C -14.2 °C 34635.4 hPa ENE 6.3 km/h 6.3 km/h 50 % 0 mm
13:19 -8.3 °C -14.3 °C 34601.5 hPa NNW 3.1 km/h   49 % 0 mm
13:24 -8.3 °C -14.3 °C 34601.5 hPa NE 9 km/h 9 km/h 49 % 0 mm
13:27 -8.3 °C -14.3 °C 34601.5 hPa NW 6 km/h 6 km/h 49 % 0 mm
13:30 -8.3 °C -14.3 °C 34601.5 hPa Calm     49 % 0 mm
13:40 -8.1 °C -14.1 °C 34601.5 hPa ENE 6 km/h 6 km/h 49 % 0 mm
13:45 -8.1 °C -14.1 °C 34601.5 hPa East 6 km/h 6 km/h 49 % 0 mm
13:50 -7.9 °C -14 °C 34601.5 hPa NNE 6.3 km/h 6.3 km/h 49 % 0 mm
14:00 -7.9 °C -13.9 °C 34601.5 hPa ENE 6 km/h 6 km/h 49 % 0 mm
14:10 -7.8 °C -14 °C 34601.5 hPa NE 6 km/h 6 km/h 48 % 0 mm
14:15 -7.7 °C -13.9 °C 34601.5 hPa ENE 6 km/h 6 km/h 48 % 0 mm
14:20 -7.7 °C -13.9 °C 34601.5 hPa NNW 6 km/h 6 km/h 48 % 0 mm
14:25 -7.7 °C -14.1 °C 34601.5 hPa NNW 3.1 km/h 3.1 km/h 47 % 0 mm
14:30 -7.7 °C -14.1 °C 34601.5 hPa ENE 6 km/h 6 km/h 47 % 0 mm
14:40 -7.7 °C -14.2 °C 34601.5 hPa NE 3.1 km/h   46 % 0 mm
14:55 -7.6 °C -14.3 °C 34601.5 hPa ESE 6 km/h 6.8 km/h 45 % 0 mm
15:00 -7.5 °C -14.3 °C 34601.5 hPa ESE 6.8 km/h 6.8 km/h 45 % 0 mm
15:05 -7.4 °C -14.2 °C 34567.7 hPa SE 9 km/h 9 km/h 45 % 0 mm
15:15 -7.4 °C -14.2 °C 34567.7 hPa ENE 6 km/h 6 km/h 45 % 0 mm
15:30 -7.3 °C -14.2 °C 34601.5 hPa East 6.3 km/h 6.3 km/h 44 % 0 mm
15:35 -7.3 °C -14.2 °C 34601.5 hPa East 6 km/h 6 km/h 44 % 0 mm
15:40 -7.2 °C -14.4 °C 34601.5 hPa East 6 km/h 6 km/h 43 % 0 mm
15:45 -7.2 °C -14.4 °C 34601.5 hPa East 6 km/h 6 km/h 43 % 0 mm
15:50 -7.2 °C -14.3 °C 34601.5 hPa East 3.1 km/h 3.7 km/h 43 % 0 mm
15:55 -7.2 °C -14.3 °C 34601.5 hPa ENE 3.1 km/h   43 % 0 mm
16:05 -7.2 °C -14.4 °C 34601.5 hPa Calm     43 % 0 mm
16:15 -7.2 °C -14.5 °C 34601.5 hPa East 6 km/h 6 km/h 42 % 0 mm
16:20 -7.2 °C -14.6 °C 34601.5 hPa East 6.3 km/h 6.3 km/h 42 % 0 mm
16:25 -7.2 °C -14.6 °C 34601.5 hPa East 6 km/h 6 km/h 42 % 0 mm
16:30 -7.2 °C -14.6 °C 34601.5 hPa East 3.1 km/h 3.1 km/h 42 % 0 mm
16:40 -7.3 °C -14.4 °C 34601.5 hPa East 3.7 km/h 3.7 km/h 43 % 0 mm
16:45 -7.3 °C -14.5 °C 34601.5 hPa Calm     43 % 0 mm
16:50 -7.2 °C -14.4 °C 34601.5 hPa Calm     43 % 0 mm
16:55 -7.2 °C -14.2 °C 34601.5 hPa SSW 3.1 km/h 3.1 km/h 44 % 0 mm
17:00 -7.3 °C -14.1 °C 34601.5 hPa SSW 3.1 km/h 3.1 km/h 45 % 0 mm
17:05 -7.3 °C -14.1 °C 34601.5 hPa SW 6 km/h 6 km/h 45 % 0 mm
17:10 -7.5 °C -14.3 °C 34601.5 hPa SW 3.1 km/h 3.1 km/h 45 % 0 mm
17:15 -7.7 °C -14.4 °C 34601.5 hPa SW 3.1 km/h 3.1 km/h 45 % 0 mm
17:20 -7.9 °C -14.6 °C 34601.5 hPa SW 3.7 km/h 3.7 km/h 45 % 0 mm
17:25 -8.1 °C -14.8 °C 34601.5 hPa SW 3.1 km/h   45 % 0 mm
17:30 -8.3 °C -14.9 °C 34601.5 hPa SW 6 km/h 6 km/h 45 % 0 mm
17:35 -8.4 °C -14.9 °C 34601.5 hPa Calm     46 % 0 mm
17:40 -8.6 °C -15.1 °C 34601.5 hPa ENE 6 km/h 6 km/h 46 % 0 mm
17:45 -8.7 °C -15.2 °C 34601.5 hPa Calm     46 % 0 mm
17:50 -8.7 °C -15.2 °C 34601.5 hPa NNW 3.1 km/h 3.1 km/h 46 % 0 mm
17:55 -8.8 °C -15.2 °C 34601.5 hPa Calm     46 % 0 mm
18:00 -8.8 °C -15.2 °C 34601.5 hPa NNW 3.1 km/h 3.1 km/h 46 % 0 mm
18:05 -8.9 °C -15.3 °C 34601.5 hPa NNW 3.7 km/h 3.7 km/h 46 % 0 mm
18:10 -8.9 °C -15.4 °C 34601.5 hPa NNE 3.1 km/h 3.1 km/h 46 % 0 mm
18:15 -9.4 °C -15.9 °C 34601.5 hPa WSW 3.7 km/h 3.7 km/h 46 % 0 mm
18:20 -13.5 °C -18.2 °C 34533.8 hPa West 5.1 km/h 5.1 km/h 55 % 0 mm
18:25 -9.8 °C -16.2 °C 34567.7 hPa SW 6 km/h 6 km/h 46 % 0 mm
18:30 -9.9 °C -16.3 °C 34567.7 hPa West 3.7 km/h 3.7 km/h 46 % 0 mm
18:35 -9.9 °C -16.3 °C 34601.5 hPa WSW 3.7 km/h 3.7 km/h 46 % 0 mm
18:40 -9.9 °C -16.3 °C 34601.5 hPa West 5.1 km/h 5.1 km/h 46 % 0 mm
18:45 -9.9 °C -16.3 °C 34601.5 hPa SW 6.3 km/h 6.3 km/h 46 % 0 mm
18:50 -10 °C -16.3 °C 34601.5 hPa SW 5.6 km/h 5.6 km/h 46 % 0 mm
18:55 -10.2 °C -16.5 °C 34601.5 hPa SW 6 km/h 6 km/h 46 % 0 mm
19:00 -13.6 °C -18.3 °C 34533.8 hPa Calm   5.1 km/h 55 % 0 mm
19:10 -10.3 °C -16.7 °C 34567.7 hPa West 3.1 km/h 3.7 km/h 46 % 0 mm
19:15 -10.4 °C -16.7 °C 34567.7 hPa West 3.1 km/h   46 % 0 mm
19:20 -13.6 °C -18.1 °C 34533.8 hPa West 2.6 km/h 2.6 km/h 56 % 0 mm
19:25 -10.5 °C -16.8 °C 34601.5 hPa West 3.1 km/h   46 % 0 mm
19:30 -10.6 °C -16.9 °C 34601.5 hPa West 4.2 km/h 4.2 km/h 46 % 0 mm
19:35 -10.7 °C -17 °C 34601.5 hPa WNW 3.1 km/h 3.1 km/h 46 % 0 mm
19:40 -13.8 °C -18.2 °C 34533.8 hPa Calm     57 % 0 mm
19:55 -11 °C -17.3 °C 34567.7 hPa Calm     46 % 0 mm
20:00 -11 °C -17.1 °C 34567.7 hPa NNW 3.7 km/h 3.7 km/h 47 % 0 mm
20:05 -11 °C -17.1 °C 34567.7 hPa Calm     47 % 0 mm
20:10 -11.2 °C -17.3 °C 34567.7 hPa West 3.1 km/h   47 % 0 mm
20:15 -11.3 °C -17.4 °C 34567.7 hPa Calm     47 % 0 mm
20:20 -14.1 °C -18.3 °C 34533.8 hPa WSW 2.6 km/h 5.1 km/h 58 % 0 mm
20:26 -11.4 °C -17.5 °C 34567.7 hPa West 6 km/h 6 km/h 47 % 0 mm
20:30 -11.4 °C -17.4 °C 34567.7 hPa SW 6.3 km/h 6.3 km/h 47 % 0 mm
20:35 -11.4 °C -17.3 °C 34567.7 hPa SW 3.1 km/h 3.1 km/h 48 % 0 mm
20:50 -14 °C -18.3 °C 34533.8 hPa Calm     58 % 0 mm
20:51 -11.7 °C -17.6 °C 34567.7 hPa WSW 6 km/h 6 km/h 48 % 0 mm
21:00 -11.8 °C -17.5 °C 34567.7 hPa Calm     49 % 0 mm
21:05 -11.9 °C -17.6 °C 34567.7 hPa WSW 3.7 km/h 3.7 km/h 49 % 0 mm
21:06 -11.9 °C -17.6 °C 34567.7 hPa WSW 5.6 km/h 5.6 km/h 49 % 0 mm
21:10 -13.9 °C -18.1 °C 34496.6 hPa Calm     59 % 0 mm
21:11 -12 °C -17.6 °C 34567.7 hPa WSW 6 km/h 6 km/h 50 % 0 mm
21:20 -14 °C -18.2 °C 34496.6 hPa Calm   2.6 km/h 59 % 0 mm
21:30 -13.9 °C -18.1 °C 34533.8 hPa Calm     59 % 0 mm
21:31 -12.2 °C -17.6 °C 34533.8 hPa NNW 4.2 km/h 4.2 km/h 51 % 0 mm
21:40 -14.2 °C -18.3 °C 34496.6 hPa North 2.6 km/h 5.1 km/h 59 % 0 mm
21:41 -12.2 °C -17.6 °C 34533.8 hPa ENE 6 km/h 6 km/h 51 % 0 mm
21:46 -12.2 °C -17.6 °C 34533.8 hPa WSW 6.3 km/h 6.3 km/h 51 % 0 mm
22:00 -14.4 °C -18.5 °C 34496.6 hPa East 2.6 km/h 5.1 km/h 59 % 0 mm
22:06 -12.5 °C -17.7 °C 34533.8 hPa ENE 3.1 km/h 3.1 km/h 52 % 0 mm
22:10 -14.5 °C -18.5 °C 34496.6 hPa Calm   5.1 km/h 60 % 0 mm
22:11 -12.6 °C -17.8 °C 34533.8 hPa Calm     52 % 0 mm
22:16 -12.6 °C -17.8 °C 34533.8 hPa Calm     52 % 0 mm
22:20 -14.7 °C -18.7 °C 34496.6 hPa SW 2.6 km/h 5.1 km/h 60 % 0 mm
22:21 -12.7 °C -17.9 °C 34567.7 hPa ENE 3.1 km/h 3.1 km/h 52 % 0 mm
22:30 -14.7 °C -18.5 °C 34496.6 hPa WSW 5.1 km/h 5.1 km/h 61 % 0 mm
22:31 -12.7 °C -17.8 °C 34567.7 hPa Calm     53 % 0 mm
22:36 -12.8 °C -17.8 °C 34567.7 hPa SW 6.8 km/h 6.8 km/h 53 % 0 mm
22:40 -14.6 °C -18.6 °C 34496.6 hPa Calm   5.1 km/h 60 % 0 mm
22:41 -12.8 °C -17.9 °C 34567.7 hPa WSW 3.7 km/h 4.2 km/h 52 % 0 mm
22:46 -12.8 °C -17.9 °C 34567.7 hPa Calm     53 % 0 mm
22:51 -12.9 °C -17.9 °C 34533.8 hPa Calm     53 % 0 mm
22:56 -12.8 °C -17.9 °C 34533.8 hPa NNW 3.7 km/h   53 % 0 mm
23:00 -14.6 °C -18.4 °C 34496.6 hPa Calm   2.6 km/h 61 % 0 mm
23:01 -12.9 °C -17.9 °C 34533.8 hPa Calm     53 % 0 mm
23:06 -13 °C -18 °C 34533.8 hPa Calm     53 % 0 mm
23:11 -13.1 °C -18.1 °C 34533.8 hPa Calm     53 % 0 mm
23:20 -14.7 °C -18.4 °C 34496.6 hPa North 5.1 km/h 5.1 km/h 62 % 0 mm
23:21 -13.2 °C -18.1 °C 34533.8 hPa Calm     54 % 0 mm
23:26 -13.2 °C -18.1 °C 34533.8 hPa North 5.1 km/h 5.1 km/h 54 % 0 mm
23:30 -14.7 °C -18.4 °C 34496.6 hPa Calm   5.1 km/h 62 % 0 mm
23:31 -13.2 °C -18.1 °C 34533.8 hPa NNE 3.7 km/h   54 % 0 mm
23:40 -14.9 °C -18.6 °C 34496.6 hPa Calm     62 % 0 mm
23:41 -13.2 °C -18.1 °C 34533.8 hPa Calm     54 % 0 mm
23:46 -13.2 °C -17.9 °C 34533.8 hPa Calm     55 % 0 mm
Meteo Sesrovires
Elogis d' Weather Underground - 4 mb

Guio original per  Jim McMurry - jmcmurry@mwt.net Adaptat per a la plantilla per  Wim van der Kuil - Leuven-Template.eu

Trobareu la nostra informacio del temps tambe a:

Weather Underground

AWEKAS